Check out our new BloomSky Weather System.

Active alerts


No alerts


Thunder radar  blitzortung!


Rain radar more information rain snow radar


Visit our other weather sites:

Template documentation
and downloads

And another site



Weather Underground History page Text

Daily Summary for January 3, 2017 Units:  English    Metric   Both
« Previous Day
Next Day »
Daily Weekly Monthly Yearly Custom
  High: Low: Average:
Temperature: TemperatureF °F 46.9 °F 60.5 °F
Dew Point: DewpointF °F 40.1 °F 48.9 °F
Humidity: Humidity % 37 % 70 %
Wind Speed: WindSpeedMPH mph 0.0 mph 2.1 mph
Wind Gust: WindSpeedGustMPH mph - -
Wind:- - West
Pressure: PressureIn in 29.91 in -
Precipitation: 0.01 in    
Historical Graphs
 
 
Tabular Data for January 3, 2017
Time Temperature Dew Point Pressure Wind Wind Speed Wind Gust Humidity Rainfall Rate (Hourly)
TemperatureF °F DewpointF °F PressureIn in Calm     Humidity % HourlyPrecipIn in
00:02 52.9 °F 51.4 °F 29.94 in Calm     95 % 0.00 in
00:08 53.1 °F 51.6 °F 29.94 in Calm     95 % 0.00 in
00:13 52.9 °F 51.4 °F 29.94 in Calm     95 % 0.00 in
00:18 52.7 °F 51.3 °F 29.94 in Calm     95 % 0.00 in
00:23 52.3 °F 50.9 °F 29.94 in Calm     95 % 0.00 in
00:28 52.9 °F 52.0 °F 29.94 in SSE 1.0 mph 4.0 mph 97 % 0.00 in
00:33 53.8 °F 52.9 °F 29.94 in South 1.0 mph 6.0 mph 97 % 0.00 in
00:38 54.3 °F 53.2 °F 29.94 in Calm   6.0 mph 96 % 0.00 in
00:43 54.5 °F 53.4 °F 29.94 in SW 1.0 mph 6.0 mph 96 % 0.00 in
00:48 54.7 °F 53.2 °F 29.94 in Calm   3.0 mph 95 % 0.00 in
00:53 54.7 °F 53.1 °F 29.94 in Calm   3.0 mph 94 % 0.00 in
00:58 54.7 °F 53.1 °F 29.94 in Calm   2.0 mph 94 % 0.00 in
01:03 54.3 °F 52.3 °F 29.94 in Calm   2.0 mph 93 % 0.00 in
01:08 54.3 °F 52.7 °F 29.94 in SSE 1.0 mph 1.0 mph 94 % 0.00 in
01:13 54.5 °F 52.9 °F 29.94 in Calm   1.0 mph 94 % 0.00 in
01:18 54.7 °F 52.7 °F 29.94 in Calm   1.0 mph 93 % 0.00 in
01:23 54.5 °F 52.5 °F 29.94 in Calm   1.0 mph 93 % 0.00 in
01:28 54.1 °F 52.2 °F 29.94 in Calm   1.0 mph 93 % 0.00 in
01:33 54.1 °F 52.2 °F 29.95 in Calm   1.0 mph 93 % 0.00 in
01:38 54.1 °F 52.2 °F 29.95 in Calm   1.0 mph 93 % 0.00 in
01:43 54.0 °F 51.6 °F 29.95 in Calm   1.0 mph 92 % 0.00 in
01:48 53.8 °F 51.4 °F 29.95 in Calm     92 % 0.00 in
01:53 53.6 °F 51.3 °F 29.94 in Calm     92 % 0.00 in
01:58 53.2 °F 50.9 °F 29.94 in Calm     92 % 0.00 in
02:03 53.2 °F 51.3 °F 29.94 in Calm     93 % 0.00 in
02:08 53.1 °F 51.1 °F 29.95 in Calm     93 % 0.00 in
02:13 52.7 °F 50.7 °F 29.95 in Calm     93 % 0.00 in
02:18 52.5 °F 50.5 °F 29.95 in Calm     93 % 0.00 in
02:23 52.9 °F 51.3 °F 29.95 in Calm     94 % 0.00 in
02:28 53.1 °F 51.4 °F 29.94 in Calm   1.0 mph 94 % 0.00 in
02:33 53.4 °F 51.8 °F 29.94 in Calm   1.0 mph 94 % 0.00 in
02:38 53.2 °F 51.6 °F 29.94 in Calm   1.0 mph 94 % 0.00 in
02:43 53.1 °F 51.4 °F 29.94 in Calm   1.0 mph 94 % 0.00 in
02:48 52.9 °F 51.3 °F 29.94 in Calm   1.0 mph 94 % 0.00 in
02:53 52.5 °F 50.9 °F 29.94 in Calm   1.0 mph 94 % 0.00 in
02:58 52.2 °F 50.5 °F 29.94 in Calm   1.0 mph 94 % 0.00 in
03:03 52.2 °F 50.7 °F 29.94 in Calm   1.0 mph 95 % 0.00 in
03:08 52.2 °F 50.7 °F 29.94 in Calm   1.0 mph 95 % 0.00 in
03:13 52.0 °F 50.5 °F 29.93 in Calm   1.0 mph 95 % 0.00 in
03:18 51.6 °F 50.2 °F 29.93 in Calm   1.0 mph 95 % 0.00 in
03:23 51.6 °F 50.2 °F 29.93 in Calm   1.0 mph 95 % 0.00 in
03:28 51.4 °F 50.0 °F 29.92 in Calm     95 % 0.00 in
03:33 51.4 °F 50.0 °F 29.93 in Calm     95 % 0.00 in
03:38 51.4 °F 50.0 °F 29.92 in Calm     95 % 0.00 in
03:43 51.4 °F 50.0 °F 29.92 in Calm     95 % 0.00 in
03:48 51.3 °F 49.8 °F 29.92 in Calm     95 % 0.00 in
03:53 51.1 °F 49.6 °F 29.93 in Calm     95 % 0.00 in
03:58 50.7 °F 49.3 °F 29.92 in Calm     95 % 0.00 in
04:03 50.7 °F 49.6 °F 29.92 in Calm     96 % 0.00 in
04:08 50.9 °F 49.8 °F 29.92 in Calm   1.0 mph 96 % 0.00 in
04:13 50.5 °F 49.5 °F 29.92 in Calm   1.0 mph 96 % 0.00 in
04:18 50.5 °F 49.5 °F 29.92 in Calm   1.0 mph 96 % 0.00 in
04:23 50.4 °F 49.3 °F 29.92 in Calm     96 % 0.00 in
04:28 50.2 °F 49.1 °F 29.92 in Calm     96 % 0.00 in
04:33 49.8 °F 48.7 °F 29.92 in Calm     96 % 0.00 in
04:38 49.6 °F 48.6 °F 29.92 in Calm     96 % 0.00 in
04:43 49.8 °F 48.7 °F 29.92 in Calm   1.0 mph 96 % 0.00 in
04:48 49.8 °F 48.7 °F 29.92 in Calm   1.0 mph 96 % 0.00 in
04:53 49.8 °F 48.9 °F 29.92 in Calm   1.0 mph 97 % 0.00 in
04:58 50.2 °F 49.3 °F 29.92 in Calm   1.0 mph 97 % 0.00 in
05:03 50.2 °F 49.3 °F 29.92 in Calm   1.0 mph 97 % 0.00 in
05:08 50.2 °F 49.3 °F 29.91 in Calm   1.0 mph 97 % 0.00 in
05:13 50.0 °F 49.1 °F 29.91 in Calm   1.0 mph 97 % 0.00 in
05:18 49.8 °F 48.9 °F 29.91 in Calm     97 % 0.00 in
05:23 49.8 °F 48.9 °F 29.91 in Calm     97 % 0.00 in
05:28 49.6 °F 48.7 °F 29.92 in Calm     97 % 0.00 in
05:33 49.3 °F 48.4 °F 29.92 in Calm     97 % 0.00 in
05:38 49.3 °F 48.4 °F 29.92 in Calm     97 % 0.00 in
05:43 49.3 °F 48.4 °F 29.92 in Calm   1.0 mph 97 % 0.00 in
05:49 49.3 °F 48.4 °F 29.93 in Calm   1.0 mph 97 % 0.00 in
05:54 49.6 °F 49.1 °F 29.93 in Calm   1.0 mph 98 % 0.00 in
05:59 49.8 °F 49.3 °F 29.93 in Calm   1.0 mph 98 % 0.00 in
06:04 50.0 °F 49.5 °F 29.93 in Calm   1.0 mph 98 % 0.00 in
06:09 50.4 °F 49.8 °F 29.93 in Calm   1.0 mph 98 % 0.01 in
06:14 50.9 °F 50.5 °F 29.93 in Calm   1.0 mph 99 % 0.01 in
06:19 51.1 °F 50.5 °F 29.93 in Calm   1.0 mph 98 % 0.01 in
06:24 51.3 °F 50.7 °F 29.93 in Calm   1.0 mph 98 % 0.01 in
06:29 51.3 °F 50.7 °F 29.93 in Calm     98 % 0.01 in
06:34 51.4 °F 50.9 °F 29.93 in Calm     98 % 0.01 in
06:39 51.6 °F 51.1 °F 29.94 in Calm     98 % 0.01 in
06:44 51.6 °F 51.1 °F 29.94 in Calm     98 % 0.01 in
06:49 51.4 °F 50.5 °F 29.94 in Calm     97 % 0.01 in
06:54 51.3 °F 50.4 °F 29.94 in Calm     97 % 0.01 in
06:59 51.4 °F 50.9 °F 29.94 in Calm     98 % 0.01 in
07:04 51.4 °F 50.9 °F 29.95 in Calm     98 % 0.01 in
07:09 51.1 °F 50.2 °F 29.95 in Calm     97 % 0.00 in
07:14 50.9 °F 50.0 °F 29.95 in Calm     97 % 0.00 in
07:19 50.5 °F 49.6 °F 29.96 in Calm     97 % 0.00 in
07:24 50.5 °F 50.0 °F 29.96 in Calm     98 % 0.00 in
07:29 50.9 °F 50.4 °F 29.95 in Calm   1.0 mph 98 % 0.00 in
07:34 51.3 °F 50.7 °F 29.96 in Calm   1.0 mph 98 % 0.00 in
07:39 51.4 °F 50.9 °F 29.96 in SW 2.0 mph 2.0 mph 98 % 0.00 in
07:44 51.8 °F 51.3 °F 29.96 in South 2.0 mph 2.0 mph 98 % 0.00 in
07:49 52.3 °F 51.8 °F 29.96 in South 1.0 mph 3.0 mph 98 % 0.00 in
07:54 52.9 °F 52.3 °F 29.96 in SSW 2.0 mph 4.0 mph 98 % 0.00 in
07:59 53.2 °F 52.7 °F 29.96 in SSW 1.0 mph 4.0 mph 98 % 0.00 in
08:04 54.0 °F 53.4 °F 29.96 in SSW 2.0 mph 4.0 mph 98 % 0.00 in
08:09 54.3 °F 53.8 °F 29.96 in South 1.0 mph 4.0 mph 98 % 0.00 in
08:14 55.0 °F 54.1 °F 29.97 in WNW 2.0 mph 4.0 mph 97 % 0.00 in
08:19 55.6 °F 54.1 °F 29.97 in SW 1.0 mph 4.0 mph 95 % 0.00 in
08:24 55.9 °F 54.3 °F 29.97 in Calm   4.0 mph 94 % 0.00 in
08:29 56.5 °F 54.5 °F 29.97 in Calm   4.0 mph 93 % 0.00 in
08:34 57.0 °F 54.5 °F 29.98 in Calm   4.0 mph 91 % 0.00 in
08:39 57.7 °F 54.5 °F 29.97 in Calm   5.0 mph 89 % 0.00 in
08:44 58.6 °F 54.9 °F 29.97 in WNW 1.0 mph 5.0 mph 87 % 0.00 in
08:49 59.4 °F 54.1 °F 29.98 in WSW 1.0 mph 5.0 mph 83 % 0.00 in
08:54 60.3 °F 54.3 °F 29.98 in WSW 1.0 mph 5.0 mph 81 % 0.00 in
08:59 61.0 °F 54.7 °F 29.98 in Calm   5.0 mph 80 % 0.00 in
09:04 62.1 °F 55.8 °F 29.98 in SSW 3.0 mph 5.0 mph 80 % 0.00 in
09:09 62.8 °F 55.8 °F 29.98 in South 2.0 mph 5.0 mph 78 % 0.00 in
09:14 63.3 °F 54.9 °F 29.98 in SW 1.0 mph 5.0 mph 74 % 0.00 in
09:19 63.7 °F 54.5 °F 29.98 in WSW 2.0 mph 5.0 mph 72 % 0.00 in
09:24 64.2 °F 55.4 °F 29.99 in SSW 1.0 mph 5.0 mph 73 % 0.00 in
09:29 64.6 °F 54.1 °F 29.99 in SSW 1.0 mph 5.0 mph 69 % 0.00 in
09:34 65.1 °F 54.7 °F 29.99 in Calm   5.0 mph 69 % 0.00 in
09:40 65.7 °F 54.3 °F 29.99 in WSW 1.0 mph 4.0 mph 67 % 0.00 in
09:45 66.4 °F 54.7 °F 30.00 in SSW 2.0 mph 4.0 mph 66 % 0.00 in
09:50 66.7 °F 53.8 °F 30.00 in West 2.0 mph 4.0 mph 63 % 0.00 in
09:55 66.7 °F 52.9 °F 30.00 in WSW 2.0 mph 4.0 mph 61 % 0.00 in
10:00 67.1 °F 53.2 °F 30.00 in WSW 2.0 mph 5.0 mph 61 % 0.00 in
10:05 67.5 °F 52.7 °F 30.00 in Calm   5.0 mph 59 % 0.00 in
10:10 67.6 °F 52.9 °F 30.01 in SW 2.0 mph 5.0 mph 59 % 0.00 in
10:15 67.8 °F 52.9 °F 30.01 in WSW 2.0 mph 6.0 mph 59 % 0.00 in
10:20 68.5 °F 53.6 °F 30.01 in WSW 1.0 mph 6.0 mph 59 % 0.00 in
10:25 68.4 °F 52.0 °F 30.01 in WNW 6.0 mph 7.0 mph 56 % 0.00 in
10:30 68.7 °F 53.4 °F 30.01 in NW 4.0 mph 8.0 mph 58 % 0.00 in
10:35 69.1 °F 52.2 °F 30.01 in WSW 2.0 mph 8.0 mph 55 % 0.00 in
10:40 69.3 °F 50.9 °F 30.01 in SW 4.0 mph 10.0 mph 52 % 0.00 in
10:45 69.3 °F 51.4 °F 30.01 in West 3.0 mph 10.0 mph 53 % 0.00 in
10:50 69.4 °F 51.6 °F 30.01 in SSW 1.0 mph 10.0 mph 53 % 0.00 in
10:55 70.0 °F 51.1 °F 30.00 in NNW 2.0 mph 8.0 mph 51 % 0.00 in
11:00 70.2 °F 51.3 °F 30.00 in West 2.0 mph 8.0 mph 51 % 0.00 in
11:05 70.5 °F 49.3 °F 30.00 in West 5.0 mph 7.0 mph 47 % 0.00 in
11:10 70.3 °F 48.0 °F 30.00 in WSW 3.0 mph 8.0 mph 45 % 0.00 in
11:15 70.5 °F 48.7 °F 30.00 in WNW 1.0 mph 9.0 mph 46 % 0.00 in
11:20 71.1 °F 49.8 °F 30.00 in WSW 2.0 mph 9.0 mph 47 % 0.00 in
11:25 71.4 °F 49.6 °F 30.00 in NW 1.0 mph 9.0 mph 46 % 0.00 in
11:30 72.1 °F 48.4 °F 30.00 in WNW 2.0 mph 8.0 mph 43 % 0.00 in
11:35 72.3 °F 48.6 °F 30.00 in South 2.0 mph 8.0 mph 43 % 0.00 in
11:40 72.9 °F 49.1 °F 30.00 in NW 2.0 mph 7.0 mph 43 % 0.00 in
11:45 72.3 °F 48.6 °F 29.99 in West 2.0 mph 9.0 mph 43 % 0.00 in
11:50 72.7 °F 48.2 °F 29.99 in SW 4.0 mph 9.0 mph 42 % 0.00 in
11:55 72.7 °F 48.9 °F 29.98 in NW 2.0 mph 9.0 mph 43 % 0.00 in
12:00 72.7 °F 49.5 °F 29.98 in SW 3.0 mph 6.0 mph 44 % 0.00 in
12:05 72.9 °F 49.1 °F 29.98 in SW 2.0 mph 7.0 mph 43 % 0.00 in
12:10 73.0 °F 49.8 °F 29.97 in WSW 3.0 mph 8.0 mph 44 % 0.00 in
12:15 73.0 °F 48.6 °F 29.97 in SSW 3.0 mph 8.0 mph 42 % 0.00 in
12:20 73.2 °F 48.7 °F 29.97 in West 2.0 mph 8.0 mph 42 % 0.00 in
12:25 73.2 °F 48.0 °F 29.97 in NW 4.0 mph 8.0 mph 41 % 0.00 in
12:30 73.2 °F 50.0 °F 29.97 in SW 1.0 mph 7.0 mph 44 % 0.00 in
12:35 73.8 °F 48.0 °F 29.97 in SW 4.0 mph 7.0 mph 40 % 0.00 in
12:40 74.1 °F 49.6 °F 29.96 in West 2.0 mph 7.0 mph 42 % 0.00 in
12:45 74.1 °F 48.2 °F 29.96 in SW 3.0 mph 7.0 mph 40 % 0.00 in
12:51 73.9 °F 48.7 °F 29.96 in SW 5.0 mph 7.0 mph 41 % 0.00 in
12:56 73.9 °F 48.7 °F 29.96 in WSW 2.0 mph 8.0 mph 41 % 0.00 in
13:01 74.5 °F 48.6 °F 29.96 in NE 3.0 mph 8.0 mph 40 % 0.00 in
13:06 74.7 °F 47.3 °F 29.95 in SSW 5.0 mph 8.0 mph 38 % 0.00 in
13:11 74.1 °F 46.9 °F 29.95 in WSW 3.0 mph 6.0 mph 38 % 0.00 in
13:16 73.9 °F 47.5 °F 29.95 in SSE 1.0 mph 7.0 mph 39 % 0.00 in
13:21 73.8 °F 48.6 °F 29.95 in West 2.0 mph 7.0 mph 41 % 0.00 in
13:26 74.3 °F 49.6 °F 29.94 in WSW 1.0 mph 7.0 mph 42 % 0.00 in
13:31 74.3 °F 47.7 °F 29.94 in West 4.0 mph 6.0 mph 39 % 0.00 in
13:36 73.9 °F 48.7 °F 29.94 in SW 1.0 mph 7.0 mph 41 % 0.00 in
13:41 74.5 °F 49.3 °F 29.94 in Calm   7.0 mph 41 % 0.00 in
13:46 74.7 °F 49.5 °F 29.94 in SW 3.0 mph 7.0 mph 41 % 0.00 in
13:51 75.4 °F 50.0 °F 29.94 in SSW 1.0 mph 4.0 mph 41 % 0.00 in
13:56 75.2 °F 49.3 °F 29.94 in East 2.0 mph 6.0 mph 40 % 0.00 in
14:01 75.0 °F 49.1 °F 29.94 in WSW 3.0 mph 6.0 mph 40 % 0.00 in
14:06 75.0 °F 49.1 °F 29.94 in WNW 4.0 mph 6.0 mph 40 % 0.00 in
14:11 74.7 °F 48.7 °F 29.94 in WNW 2.0 mph 7.0 mph 40 % 0.00 in
14:16 74.8 °F 48.9 °F 29.94 in WSW 1.0 mph 7.0 mph 40 % 0.00 in
14:21 74.8 °F 48.2 °F 29.94 in West 2.0 mph 8.0 mph 39 % 0.00 in
14:26 75.0 °F 46.9 °F 29.94 in South 1.0 mph 8.0 mph 37 % 0.00 in
14:31 75.0 °F 47.7 °F 29.94 in NW 3.0 mph 8.0 mph 38 % 0.00 in
14:36 74.8 °F 47.5 °F 29.94 in NW 1.0 mph 8.0 mph 38 % 0.00 in
14:41 74.7 °F 48.0 °F 29.94 in SSW 2.0 mph 8.0 mph 39 % 0.00 in
14:46 74.7 °F 47.3 °F 29.94 in WNW 2.0 mph 8.0 mph 38 % 0.00 in
14:51 74.5 °F 48.6 °F 29.94 in West 2.0 mph 6.0 mph 40 % 0.00 in
14:56 74.5 °F 47.1 °F 29.94 in WNW 3.0 mph 6.0 mph 38 % 0.00 in
15:01 74.3 °F 48.4 °F 29.94 in NW 3.0 mph 6.0 mph 40 % 0.00 in
15:06 74.3 °F 48.4 °F 29.94 in Calm   5.0 mph 40 % 0.00 in
15:11 74.5 °F 48.6 °F 29.95 in Calm   6.0 mph 40 % 0.00 in
15:16 74.5 °F 47.1 °F 29.95 in WSW 2.0 mph 6.0 mph 38 % 0.00 in
15:21 74.1 °F 46.9 °F 29.95 in NNE 2.0 mph 6.0 mph 38 % 0.00 in
15:26 74.1 °F 47.7 °F 29.94 in WNW 2.0 mph 7.0 mph 39 % 0.00 in
15:31 74.1 °F 46.9 °F 29.95 in NW 4.0 mph 7.0 mph 38 % 0.00 in
15:36 73.9 °F 46.0 °F 29.94 in NW 1.0 mph 7.0 mph 37 % 0.00 in
15:41 73.8 °F 46.6 °F 29.95 in NW 3.0 mph 6.0 mph 38 % 0.00 in
15:47 73.8 °F 48.0 °F 29.95 in NW 2.0 mph 7.0 mph 40 % 0.00 in
15:52 73.9 °F 46.8 °F 29.95 in NW 1.0 mph 7.0 mph 38 % 0.00 in
15:57 73.9 °F 48.0 °F 29.95 in Calm   7.0 mph 40 % 0.00 in
16:02 74.1 °F 47.7 °F 29.95 in NW 4.0 mph 6.0 mph 39 % 0.00 in
16:07 74.1 °F 46.9 °F 29.95 in NW 6.0 mph 6.0 mph 38 % 0.00 in
16:12 73.8 °F 47.3 °F 29.95 in NW 4.0 mph 8.0 mph 39 % 0.00 in
16:17 73.6 °F 47.8 °F 29.95 in WSW 1.0 mph 8.0 mph 40 % 0.00 in
16:22 73.8 °F 48.6 °F 29.95 in West 2.0 mph 8.0 mph 41 % 0.00 in
16:23 73.8 °F 48.0 °F 29.95 in WSW 1.0 mph 8.0 mph 40 % 0.00 in
16:28 73.8 °F 48.0 °F 29.95 in WNW 1.0 mph 7.0 mph 40 % 0.00 in
16:33 73.8 °F 49.3 °F 29.95 in Calm   5.0 mph 42 % 0.00 in
16:38 73.8 °F 49.3 °F 29.95 in Calm   5.0 mph 42 % 0.00 in
16:43 73.8 °F 49.3 °F 29.95 in Calm   3.0 mph 42 % 0.00 in
16:48 73.6 °F 49.6 °F 29.96 in Calm   2.0 mph 43 % 0.00 in
16:53 73.0 °F 48.6 °F 29.96 in Calm   3.0 mph 42 % 0.00 in
16:58 72.7 °F 48.9 °F 29.96 in Calm   3.0 mph 43 % 0.00 in
17:03 72.1 °F 49.1 °F 29.96 in Calm   3.0 mph 44 % 0.00 in
17:08 71.6 °F 49.1 °F 29.96 in Calm   4.0 mph 45 % 0.00 in
17:13 71.1 °F 48.6 °F 29.96 in West 1.0 mph 4.0 mph 45 % 0.00 in
17:18 70.5 °F 48.7 °F 29.96 in Calm   4.0 mph 46 % 0.00 in
17:23 70.0 °F 48.7 °F 29.96 in Calm   1.0 mph 47 % 0.00 in
17:28 69.3 °F 49.3 °F 29.96 in Calm   1.0 mph 49 % 0.00 in
17:33 68.7 °F 49.3 °F 29.96 in Calm   1.0 mph 50 % 0.00 in
17:38 68.0 °F 49.3 °F 29.96 in Calm   1.0 mph 51 % 0.00 in
17:43 67.3 °F 49.1 °F 29.97 in Calm   1.0 mph 52 % 0.00 in
17:48 66.6 °F 48.9 °F 29.97 in Calm   1.0 mph 53 % 0.00 in
17:54 66.2 °F 49.1 °F 29.98 in Calm   1.0 mph 54 % 0.00 in
17:59 66.0 °F 48.4 °F 29.98 in WNW 2.0 mph 2.0 mph 53 % 0.00 in
18:04 66.4 °F 48.2 °F 29.98 in NNW 2.0 mph 4.0 mph 52 % 0.00 in
18:09 66.7 °F 48.0 °F 29.98 in NW 1.0 mph 4.0 mph 51 % 0.00 in
18:14 66.7 °F 47.5 °F 29.98 in NW 1.0 mph 4.0 mph 50 % 0.00 in
18:19 67.3 °F 47.5 °F 29.99 in NW 2.0 mph 5.0 mph 49 % 0.00 in
18:24 67.3 °F 46.9 °F 29.99 in NW 4.0 mph 6.0 mph 48 % 0.00 in
18:29 67.3 °F 46.9 °F 29.99 in NW 3.0 mph 6.0 mph 48 % 0.00 in
18:34 66.9 °F 46.6 °F 29.99 in NW 4.0 mph 8.0 mph 48 % 0.00 in
18:39 66.7 °F 46.9 °F 30.00 in Calm   8.0 mph 49 % 0.00 in
18:44 66.2 °F 46.4 °F 30.00 in West 1.0 mph 8.0 mph 49 % 0.00 in
18:49 65.8 °F 46.2 °F 30.00 in NW 5.0 mph 5.0 mph 49 % 0.00 in
18:54 65.8 °F 45.7 °F 30.00 in NNW 4.0 mph 6.0 mph 48 % 0.00 in
18:59 65.7 °F 45.5 °F 30.01 in NNW 6.0 mph 8.0 mph 48 % 0.00 in
19:04 65.5 °F 46.4 °F 30.01 in NNW 5.0 mph 11.0 mph 50 % 0.00 in
19:09 65.1 °F 46.6 °F 30.01 in NW 5.0 mph 12.0 mph 51 % 0.00 in
19:14 64.8 °F 47.3 °F 30.01 in NNW 4.0 mph 12.0 mph 53 % 0.00 in
19:19 64.2 °F 47.3 °F 30.01 in WNW 7.0 mph 12.0 mph 54 % 0.00 in
19:24 64.0 °F 47.5 °F 30.02 in NNW 5.0 mph 11.0 mph 55 % 0.00 in
19:29 63.7 °F 47.7 °F 30.02 in NW 3.0 mph 13.0 mph 56 % 0.00 in
19:34 63.1 °F 47.7 °F 30.03 in NW 6.0 mph 13.0 mph 57 % 0.00 in
19:39 62.6 °F 48.0 °F 30.03 in NW 5.0 mph 16.0 mph 59 % 0.00 in
19:44 61.9 °F 47.8 °F 30.04 in NNW 10.0 mph 16.0 mph 60 % 0.00 in
19:49 61.3 °F 48.2 °F 30.04 in NNW 7.0 mph 16.0 mph 62 % 0.00 in
19:54 60.6 °F 47.5 °F 30.04 in WSW 4.0 mph 15.0 mph 62 % 0.00 in
19:59 60.3 °F 47.7 °F 30.04 in NW 4.0 mph 15.0 mph 63 % 0.00 in
20:04 59.9 °F 47.7 °F 30.04 in NW 4.0 mph 12.0 mph 64 % 0.00 in
20:09 59.5 °F 47.8 °F 30.04 in West 7.0 mph 12.0 mph 65 % 0.00 in
20:14 59.0 °F 47.7 °F 30.05 in NNW 4.0 mph 11.0 mph 66 % 0.00 in
20:19 58.5 °F 47.1 °F 30.05 in WNW 7.0 mph 14.0 mph 66 % 0.00 in
20:24 58.3 °F 47.3 °F 30.05 in NW 6.0 mph 14.0 mph 67 % 0.00 in
20:29 57.7 °F 47.3 °F 30.05 in NNW 4.0 mph 14.0 mph 68 % 0.00 in
20:34 57.4 °F 46.9 °F 30.06 in NNW 7.0 mph 12.0 mph 68 % 0.00 in
20:39 56.8 °F 46.4 °F 30.06 in NW 10.0 mph 11.0 mph 68 % 0.00 in
20:44 56.5 °F 46.4 °F 30.06 in North 9.0 mph 16.0 mph 69 % 0.00 in
20:49 56.1 °F 46.0 °F 30.06 in NNW 6.0 mph 16.0 mph 69 % 0.00 in
20:54 55.8 °F 46.0 °F 30.06 in NNW 6.0 mph 16.0 mph 70 % 0.00 in
20:59 55.4 °F 45.9 °F 30.07 in NNW 8.0 mph 15.0 mph 70 % 0.00 in
21:04 55.0 °F 45.9 °F 30.07 in NNW 5.0 mph 17.0 mph 71 % 0.00 in
21:09 54.9 °F 46.0 °F 30.07 in West 4.0 mph 17.0 mph 72 % 0.00 in
21:15 54.5 °F 45.7 °F 30.07 in NNW 8.0 mph 17.0 mph 72 % 0.00 in
21:20 54.1 °F 45.7 °F 30.07 in NNW 9.0 mph 12.0 mph 73 % 0.00 in
21:25 54.0 °F 45.9 °F 30.07 in WNW 4.0 mph 11.0 mph 74 % 0.00 in
21:30 53.8 °F 45.7 °F 30.08 in WNW 6.0 mph 11.0 mph 74 % 0.00 in
21:35 53.4 °F 45.3 °F 30.08 in NW 5.0 mph 10.0 mph 74 % 0.00 in
21:40 53.1 °F 45.0 °F 30.08 in NW 5.0 mph 10.0 mph 74 % 0.00 in
21:45 52.5 °F 44.8 °F 30.08 in NW 6.0 mph 10.0 mph 75 % 0.00 in
21:50 52.3 °F 44.6 °F 30.09 in NW 9.0 mph 10.0 mph 75 % 0.00 in
21:55 52.0 °F 44.6 °F 30.09 in NW 5.0 mph 13.0 mph 76 % 0.00 in
22:00 51.6 °F 44.2 °F 30.09 in NW 2.0 mph 13.0 mph 76 % 0.00 in
22:05 51.3 °F 44.2 °F 30.09 in NW 5.0 mph 13.0 mph 77 % 0.00 in
22:10 51.1 °F 44.1 °F 30.09 in NNE 5.0 mph 12.0 mph 77 % 0.00 in
22:15 50.7 °F 43.7 °F 30.09 in NW 9.0 mph 12.0 mph 77 % 0.00 in
22:20 50.5 °F 43.9 °F 30.09 in NW 5.0 mph 15.0 mph 78 % 0.00 in
22:25 50.4 °F 43.7 °F 30.09 in WNW 3.0 mph 15.0 mph 78 % 0.00 in
22:30 50.2 °F 43.5 °F 30.10 in West 5.0 mph 15.0 mph 78 % 0.00 in
22:35 49.8 °F 43.2 °F 30.10 in NNW 5.0 mph 12.0 mph 78 % 0.00 in
22:40 49.6 °F 43.3 °F 30.10 in North 10.0 mph 12.0 mph 79 % 0.00 in
22:45 49.5 °F 43.2 °F 30.10 in NW 6.0 mph 13.0 mph 79 % 0.00 in
22:50 49.3 °F 43.0 °F 30.10 in WNW 8.0 mph 13.0 mph 79 % 0.00 in
22:55 49.3 °F 43.3 °F 30.10 in NW 4.0 mph 13.0 mph 80 % 0.00 in
23:00 48.9 °F 43.0 °F 30.11 in Calm   11.0 mph 80 % 0.00 in
23:05 48.9 °F 43.0 °F 30.11 in NNW 6.0 mph 10.0 mph 80 % 0.00 in
23:10 48.7 °F 42.8 °F 30.11 in NW 5.0 mph 11.0 mph 80 % 0.00 in
23:15 48.6 °F 43.0 °F 30.11 in North 4.0 mph 12.0 mph 81 % 0.00 in
23:20 48.4 °F 42.8 °F 30.11 in NNW 4.0 mph 12.0 mph 81 % 0.00 in
23:25 48.2 °F 42.1 °F 30.11 in WNW 8.0 mph 13.0 mph 79 % 0.00 in
23:30 48.0 °F 41.5 °F 30.11 in NW 7.0 mph 16.0 mph 78 % 0.00 in
23:35 47.7 °F 40.8 °F 30.11 in NNW 4.0 mph 16.0 mph 77 % 0.00 in
23:40 47.5 °F 40.6 °F 30.11 in NNW 12.0 mph 17.0 mph 77 % 0.00 in
23:45 47.3 °F 40.5 °F 30.11 in NW 8.0 mph 17.0 mph 77 % 0.00 in
23:50 47.1 °F 40.3 °F 30.11 in NW 4.0 mph 17.0 mph 77 % 0.00 in
23:55 46.9 °F 40.1 °F 30.11 in WNW 6.0 mph 16.0 mph 77 % 0.00 in
Spring, Texas: Villages of Bridgestone
Compliments of Weather Underground - 2.75 mb

Script developed by  Jim McMurry - jmcmurry@mwt.net Adapted for the template by  Wim van der Kuil - Leuven-Template.eu

You find our weather info also at:

UK Metoffice

WeatherCloud

Weather Underground

Mid-South Weather Network

AWEKAS

Citizen Weather Observer Program (CWOP)

HAMweather, WeatherForYou, PWS Weather

Equipment we use:

Weather-station
Davis Vantage Vue

Weather-program
Meteohub

Weather-server
Debian 7.9 x86 (Guest)

Provider
DreamHost

Davis Vantage Vue

Meteohub

Debian 7.9 x86 (Guest)

DreamHost